Time;durP1;ratioP1;P1;durP2;ratioP2;P2;SDS_P1;SDS_P2;PMS_P1;PMS_P2;Temp;Humidity;BMP_temperature;BMP_pressure;BME280_temperature;BME280_humidity;BME280_pressure;Samples;Min_cycle;Max_cycle;Signal;HPM_P1;HPM_P2
2023/10/19 00:01:15;;;;;;;13.52;11.85;;;;;;;8.27;79.28;94985.72;5055026;28;20189;-75
2023/10/19 00:03:44;;;;;;;13.88;12.48;;;;;;;8.27;79.48;94985.72;5037082;28;20206;-75
2023/10/19 00:06:10;;;;;;;13.85;12.55;;;;;;;8.25;79.76;94986.06;5037330;28;20194;-74
2023/10/19 00:08:41;;;;;;;13.65;12.35;;;;;;;8.22;79.33;94978.50;5037007;28;20683;-75
2023/10/19 00:11:08;;;;;;;14.98;13.48;;;;;;;8.20;79.52;94973.34;5054685;28;20200;-74
2023/10/19 00:13:37;;;;;;;15.93;13.75;;;;;;;8.20;79.20;94958.81;5036888;28;20611;-75
2023/10/19 00:16:11;;;;;;;15.93;14.23;;;;;;;8.14;78.79;94965.69;5054889;28;20213;-75
2023/10/19 00:18:42;;;;;;;18.88;15.35;;;;;;;8.11;78.62;94969.91;5057495;28;20186;-75
2023/10/19 00:21:19;;;;;;;17.80;14.55;;;;;;;8.09;78.96;94963.94;5058211;28;20215;-75
2023/10/19 00:23:49;;;;;;;18.60;14.75;;;;;;;8.06;78.45;94956.38;5057874;28;20638;-74
2023/10/19 00:26:19;;;;;;;16.23;14.13;;;;;;;8.04;78.76;94957.84;5058312;28;20194;-75
2023/10/19 00:28:49;;;;;;;16.20;14.52;;;;;;;8.02;78.78;94958.19;5041300;28;20212;-75
2023/10/19 00:31:20;;;;;;;17.33;14.80;;;;;;;7.99;79.15;94949.81;5057928;28;20204;-75
2023/10/19 00:33:51;;;;;;;18.88;16.67;;;;;;;7.92;78.71;94944.91;5057933;28;20228;-75
2023/10/19 00:36:20;;;;;;;21.00;16.65;;;;;;;7.88;78.85;94946.69;5057759;28;20210;-74
2023/10/19 00:38:52;;;;;;;17.90;16.10;;;;;;;7.83;78.53;94938.69;5058131;28;20182;-74
2023/10/19 00:41:28;;;;;;;17.50;15.70;;;;;;;7.77;78.62;94945.50;5058084;28;20194;-74
2023/10/19 00:44:02;;;;;;;18.90;15.38;;;;;;;7.76;78.35;94946.66;5041079;28;20203;-75
2023/10/19 00:46:37;;;;;;;19.63;16.10;;;;;;;7.74;78.51;94948.97;5057983;28;20190;-73
2023/10/19 00:49:07;;;;;;;18.98;15.52;;;;;;;7.72;78.66;94947.34;5058024;28;20268;-73
2023/10/19 00:51:53;;;;;;;16.70;14.88;;;;;;;7.70;78.85;94957.88;5040170;28;20255;-74
2023/10/19 00:54:31;;;;;;;15.80;14.20;;;;;;;7.72;78.93;94944.59;5057891;28;20233;-74
2023/10/19 00:57:04;;;;;;;17.45;14.90;;;;;;;7.62;79.11;94955.19;5057474;28;20194;-74
2023/10/19 00:59:35;;;;;;;14.68;13.25;;;;;;;7.59;79.53;94942.97;5039945;28;20209;-74
2023/10/19 01:02:18;;;;;;;14.90;13.40;;;;;;;7.68;80.20;94951.09;5057436;28;20197;-74
2023/10/19 01:04:50;;;;;;;15.02;13.52;;;;;;;7.71;80.16;94955.91;5040307;28;20225;-74
2023/10/19 01:07:22;;;;;;;14.73;13.07;;;;;;;7.72;80.06;94941.03;5057848;28;20225;-74
2023/10/19 01:09:52;;;;;;;14.10;12.60;;;;;;;7.78;80.12;94952.63;5040602;28;20292;-74
2023/10/19 01:15:07;;;;;;;13.35;12.05;;;;;;;7.75;79.94;94954.09;5039278;28;20217;-74
2023/10/19 01:17:39;;;;;;;13.27;12.05;;;;;;;7.76;80.37;94963.94;5057097;28;20189;-74
2023/10/19 01:20:16;;;;;;;12.77;11.52;;;;;;;7.78;80.52;94952.63;5039958;28;20197;-74
2023/10/19 01:22:53;;;;;;;13.02;11.77;;;;;;;7.83;80.93;94952.41;5057068;28;20199;-74
2023/10/19 01:25:34;;;;;;;14.02;12.43;;;;;;;7.84;80.85;94952.09;5040172;28;20205;-74
2023/10/19 01:28:08;;;;;;;12.98;11.77;;;;;;;7.83;80.39;94955.16;5056668;28;20182;-74
2023/10/19 01:30:36;;;;;;;13.88;11.85;;;;;;;7.79;80.17;94955.03;5055805;28;20191;-75
2023/10/19 01:33:12;;;;;;;12.98;11.77;;;;;;;7.79;80.39;94951.50;5038948;28;20702;-74
2023/10/19 01:38:26;;;;;;;13.57;12.27;;;;;;;7.78;80.61;94952.63;5056326;28;20213;-73
2023/10/19 01:40:54;;;;;;;13.40;12.00;;;;;;;7.75;80.62;94956.06;5056637;28;20229;-74
2023/10/19 01:43:22;;;;;;;13.15;11.93;;;;;;;7.73;80.73;94956.38;5057139;28;20181;-74
2023/10/19 01:45:53;;;;;;;14.65;12.43;;;;;;;7.71;80.33;94964.16;5057084;28;20189;-74
2023/10/19 01:48:22;;;;;;;13.38;12.15;;;;;;;7.67;80.09;94961.28;5056217;28;20186;-74
2023/10/19 01:50:51;;;;;;;13.90;12.48;;;;;;;7.68;80.60;94956.59;5038898;28;20197;-74
2023/10/19 01:53:17;;;;;;;13.30;12.00;;;;;;;7.70;80.48;94957.88;5029646;28;20235;-75
2023/10/19 01:55:47;;;;;;;12.98;11.77;;;;;;;7.69;80.15;94960.94;5015779;28;20222;-75
2023/10/19 01:58:14;;;;;;;12.73;11.52;;;;;;;7.67;80.26;94963.22;5016421;28;20211;-75
2023/10/19 02:00:43;;;;;;;13.05;11.75;;;;;;;7.69;80.41;94958.97;5016213;28;20227;-75
2023/10/19 02:03:10;;;;;;;12.43;11.32;;;;;;;7.70;80.38;94954.31;5016449;28;20190;-75
2023/10/19 02:05:41;;;;;;;12.80;11.10;;;;;;;7.65;80.45;94949.81;5015613;28;20641;-76
2023/10/19 02:08:09;;;;;;;13.30;11.90;;;;;;;7.59;80.27;94948.44;5015480;28;20246;-76
2023/10/19 02:10:37;;;;;;;13.27;11.90;;;;;;;7.55;79.98;94952.97;5016429;28;20209;-74
2023/10/19 02:13:10;;;;;;;12.23;11.13;;;;;;;7.56;79.67;94956.56;5016374;28;20198;-73
2023/10/19 02:15:41;;;;;;;12.77;11.60;;;;;;;7.53;79.49;94960.75;5016186;28;20222;-75
2023/10/19 02:18:09;;;;;;;12.18;10.98;;;;;;;7.45;79.63;94961.66;5016413;28;20230;-75
2023/10/19 02:20:39;;;;;;;12.02;10.85;;;;;;;7.41;79.01;94963.47;5014985;28;20203;-75
2023/10/19 02:23:07;;;;;;;12.98;11.07;;;;;;;7.35;79.11;94960.09;5016042;28;20639;-75
2023/10/19 02:25:36;;;;;;;11.90;10.68;;;;;;;7.34;79.01;94963.19;5015953;28;20615;-75
2023/10/19 02:28:06;;;;;;;13.05;11.75;;;;;;;7.32;79.08;94958.03;5016363;28;20187;-75
2023/10/19 02:30:33;;;;;;;12.48;11.10;;;;;;;7.30;79.04;94960.31;5015437;28;20263;-75
2023/10/19 02:33:00;;;;;;;13.13;11.43;;;;;;;7.30;79.05;94962.22;5016015;28;20211;-75
2023/10/19 02:35:28;;;;;;;12.68;11.48;;;;;;;7.27;79.07;94963.72;5015172;28;20222;-76
2023/10/19 02:37:56;;;;;;;14.05;11.48;;;;;;;7.24;79.18;94954.22;5016459;28;20274;-74
2023/10/19 02:40:24;;;;;;;13.70;12.25;;;;;;;7.17;78.77;94956.69;5014115;28;20211;-75
2023/10/19 02:42:53;;;;;;;13.10;11.73;;;;;;;7.17;78.91;94950.41;5015919;28;20202;-75
2023/10/19 02:45:23;;;;;;;12.45;11.25;;;;;;;7.17;78.64;94953.13;5015094;28;20242;-74
2023/10/19 02:47:51;;;;;;;14.02;12.23;;;;;;;7.13;78.33;94952.19;5015916;28;20509;-74
2023/10/19 02:50:22;;;;;;;13.13;11.82;;;;;;;7.09;78.68;94956.75;5015986;28;20649;-75
2023/10/19 02:52:50;;;;;;;12.95;11.65;;;;;;;7.07;78.65;94946.09;5019137;28;20602;-73
2023/10/19 02:55:17;;;;;;;13.05;11.75;;;;;;;7.09;78.85;94949.31;5037795;28;20296;-73
2023/10/19 02:57:46;;;;;;;15.57;11.30;;;;;;;7.09;78.72;94957.56;5055347;28;20204;-73
2023/10/19 03:00:14;;;;;;;14.38;11.93;;;;;;;7.06;78.56;94950.00;5038203;28;20194;-73
2023/10/19 03:02:46;;;;;;;13.07;11.75;;;;;;;7.03;78.48;94956.13;5037794;28;20225;-74
2023/10/19 03:05:14;;;;;;;12.75;11.45;;;;;;;7.02;78.88;94949.06;5055017;28;20601;-74
2023/10/19 03:07:44;;;;;;;12.93;11.65;;;;;;;7.02;78.64;94953.75;5038791;28;20297;-74
2023/10/19 03:10:22;;;;;;;14.15;12.65;;;;;;;6.95;78.24;94946.84;5037789;28;20613;-74
2023/10/19 03:12:51;;;;;;;12.75;11.43;;;;;;;6.95;78.42;94943.28;5055602;28;20210;-74
2023/10/19 03:15:20;;;;;;;13.95;12.52;;;;;;;6.95;78.39;94941.34;5038523;28;20236;-74
2023/10/19 03:17:49;;;;;;;13.48;12.05;;;;;;;6.97;79.05;94950.06;5055440;28;20194;-74
2023/10/19 03:20:17;;;;;;;12.52;11.35;;;;;;;6.98;78.93;94946.16;5037703;28;20287;-74
2023/10/19 03:22:46;;;;;;;13.65;11.95;;;;;;;6.95;78.43;94944.09;5054907;28;20185;-74
2023/10/19 03:28:07;;;;;;;14.00;12.10;;;;;;;6.96;78.64;94955.84;5054412;28;20197;-74
2023/10/19 03:30:39;;;;;;;13.30;11.40;;;;;;;6.96;78.44;94956.66;5037602;28;20585;-74
2023/10/19 03:33:10;;;;;;;12.32;11.18;;;;;;;6.95;78.66;94944.09;5039388;28;20189;-75
2023/10/19 03:35:41;;;;;;;14.52;12.90;;;;;;;6.96;78.57;94942.16;5056694;28;20220;-75
2023/10/19 03:38:14;;;;;;;13.07;11.77;;;;;;;6.94;79.09;94952.66;5022305;28;20210;-75
2023/10/19 03:40:46;;;;;;;13.10;11.80;;;;;;;6.94;78.74;94945.22;5039583;28;20208;-75
2023/10/19 03:43:21;;;;;;;13.88;12.48;;;;;;;6.97;79.28;94935.50;5039099;28;20202;-75
2023/10/19 03:45:52;;;;;;;13.43;12.20;;;;;;;6.92;78.98;94933.78;5055550;28;20239;-74
2023/10/19 03:48:27;;;;;;;14.27;12.07;;;;;;;6.83;78.32;94938.53;5037404;28;20280;-74
2023/10/19 03:50:55;;;;;;;15.68;12.23;;;;;;;6.80;78.54;94921.94;5036897;28;20300;-74
2023/10/19 03:53:24;;;;;;;13.50;12.05;;;;;;;6.79;78.34;94920.31;5029637;28;20309;-74
2023/10/19 03:55:52;;;;;;;12.90;11.75;;;;;;;6.79;78.32;94923.06;5018968;28;20261;-74
2023/10/19 03:58:24;;;;;;;13.23;11.93;;;;;;;6.82;78.79;94923.19;5018628;28;20521;-73
2023/10/19 04:00:53;;;;;;;13.40;12.00;;;;;;;6.81;78.13;94918.06;5018649;28;20211;-74
2023/10/19 04:03:24;;;;;;;16.70;12.95;;;;;;;6.78;78.24;94932.44;5018843;28;20646;-71
2023/10/19 04:05:51;;;;;;;14.00;12.52;;;;;;;6.76;78.44;94930.03;5018995;28;20261;-71
2023/10/19 04:08:20;;;;;;;14.52;13.05;;;;;;;6.73;78.63;94934.22;5018281;28;20603;-71
2023/10/19 04:11:08;;;;;;;14.43;13.02;;;;;;;6.71;78.68;94933.75;5017779;28;20210;-71
2023/10/19 04:13:37;;;;;;;15.82;13.38;;;;;;;6.68;79.03;94930.84;5018702;28;20592;-71
2023/10/19 04:16:06;;;;;;;15.77;14.13;;;;;;;6.67;78.63;94935.53;5017586;28;20650;-71
2023/10/19 04:18:38;;;;;;;16.73;13.25;;;;;;;6.67;78.71;94934.75;5017759;28;20195;-71
2023/10/19 04:21:06;;;;;;;14.60;13.20;;;;;;;6.68;78.78;94936.34;5018612;28;20257;-72
2023/10/19 04:23:36;;;;;;;15.20;13.60;;;;;;;6.67;78.64;94930.06;5017249;28;20191;-72
2023/10/19 04:26:10;;;;;;;14.82;13.25;;;;;;;6.68;78.98;94928.13;5018110;28;20249;-72
2023/10/19 04:28:44;;;;;;;15.40;13.35;;;;;;;6.73;79.56;94933.44;5017394;28;20217;-72
2023/10/19 04:31:15;;;;;;;14.43;12.70;;;;;;;6.73;79.74;94936.16;5018561;28;20203;-72
2023/10/19 04:33:47;;;;;;;15.52;13.90;;;;;;;6.78;80.16;94929.69;5017367;28;20539;-72
2023/10/19 04:36:15;;;;;;;16.02;13.88;;;;;;;6.81;80.25;94918.84;5018340;28;20215;-72
2023/10/19 04:38:44;;;;;;;16.25;14.32;;;;;;;6.82;79.78;94912.22;5016946;28;20195;-71
2023/10/19 04:41:12;;;;;;;15.90;14.35;;;;;;;6.78;79.66;94907.75;5017911;28;20603;-67
2023/10/19 04:43:43;;;;;;;17.98;14.98;;;;;;;6.76;79.65;94916.31;5017322;28;20213;-68
2023/10/19 04:46:12;;;;;;;15.80;14.05;;;;;;;6.70;79.14;94904.75;5017801;28;20206;-69
2023/10/19 04:48:45;;;;;;;17.25;13.63;;;;;;;6.61;79.32;94911.41;5017323;28;20528;-69
2023/10/19 04:51:12;;;;;;;16.00;13.88;;;;;;;6.55;79.54;94897.09;5016724;28;20227;-69
2023/10/19 04:53:40;;;;;;;17.63;14.43;;;;;;;6.56;79.78;94909.66;5034199;28;20291;-69
2023/10/19 04:56:12;;;;;;;15.52;13.80;;;;;;;6.53;80.23;94910.31;5040070;28;20565;-69
2023/10/19 04:58:41;;;;;;;16.58;14.82;;;;;;;6.54;80.11;94909.19;5057182;28;20182;-69
2023/10/19 05:01:17;;;;;;;17.13;14.68;;;;;;;6.56;80.47;94906.13;5037033;28;20226;-69
2023/10/19 05:03:48;;;;;;;19.67;14.70;;;;;;;6.62;80.82;94911.09;5039947;28;20208;-68
2023/10/19 05:06:15;;;;;;;18.27;14.52;;;;;;;6.65;80.22;94904.16;5057120;28;20528;-69
2023/10/19 05:08:42;;;;;;;16.20;13.95;;;;;;;6.64;80.44;94917.03;5056958;28;20651;-69
2023/10/19 05:11:09;;;;;;;16.17;14.30;;;;;;;6.66;80.17;94917.50;5057190;28;20198;-69
2023/10/19 05:13:37;;;;;;;18.60;14.80;;;;;;;6.67;80.30;94919.09;5039634;28;20209;-69
2023/10/19 05:16:04;;;;;;;21.00;15.38;;;;;;;6.69;80.53;94918.78;5039184;28;20230;-69
2023/10/19 05:18:32;;;;;;;17.27;15.55;;;;;;;6.70;80.48;94915.69;5040304;28;20612;-69
2023/10/19 05:21:02;;;;;;;18.25;15.73;;;;;;;6.73;80.59;94909.56;5040383;28;20288;-69
2023/10/19 05:23:32;;;;;;;20.08;16.90;;;;;;;6.76;80.97;94913.59;5056979;28;20285;-69
2023/10/19 05:26:06;;;;;;;18.40;16.67;;;;;;;6.83;81.12;94911.13;5056711;28;20192;-69
2023/10/19 05:28:35;;;;;;;20.08;16.52;;;;;;;6.84;81.24;94911.91;5040129;28;20194;-69
2023/10/19 05:31:04;;;;;;;21.30;17.17;;;;;;;6.86;81.34;94920.59;5056923;28;20192;-70
2023/10/19 05:33:36;;;;;;;20.48;18.38;;;;;;;6.91;81.45;94929.44;5057299;28;20284;-69
2023/10/19 05:36:05;;;;;;;19.90;17.88;;;;;;;6.97;81.52;94935.50;5056594;28;20637;-69
2023/10/19 05:38:34;;;;;;;20.83;18.73;;;;;;;7.03;81.47;94933.41;5056199;28;20221;-69
2023/10/19 05:41:05;;;;;;;23.20;20.87;;;;;;;7.06;81.41;94932.72;5039339;28;20569;-69
2023/10/19 05:43:34;;;;;;;22.05;18.65;;;;;;;7.11;81.99;94929.78;5039022;28;20210;-69
2023/10/19 05:46:01;;;;;;;20.38;18.27;;;;;;;7.20;82.58;94941.50;5038976;28;20213;-69
2023/10/19 05:48:30;;;;;;;20.58;18.15;;;;;;;7.25;82.91;94935.81;5038809;28;20648;-69
2023/10/19 05:50:57;;;;;;;21.42;17.85;;;;;;;7.29;83.10;94934.00;5056424;28;20186;-69
2023/10/19 05:53:29;;;;;;;18.85;16.85;;;;;;;7.33;83.54;94929.44;5029609;28;20266;-69
2023/10/19 05:55:56;;;;;;;21.73;18.40;;;;;;;7.37;83.62;94935.06;5015809;28;20199;-70
2023/10/19 05:58:27;;;;;;;21.17;18.40;;;;;;;7.43;83.73;94930.97;5016648;28;20194;-69
2023/10/19 06:00:55;;;;;;;25.08;20.70;;;;;;;7.47;84.19;94935.44;5015580;28;20286;-69
2023/10/19 06:03:26;;;;;;;24.30;20.15;;;;;;;7.51;83.93;94938.31;5015705;28;20235;-69
2023/10/19 06:05:56;;;;;;;25.45;20.88;;;;;;;7.52;84.22;94937.22;5015378;28;20315;-69
2023/10/19 06:08:31;;;;;;;25.98;21.30;;;;;;;7.54;83.90;94945.88;5016180;28;20203;-69
2023/10/19 06:10:58;;;;;;;23.50;20.30;;;;;;;7.55;84.04;94936.50;5016154;28;20206;-69
2023/10/19 06:13:29;;;;;;;24.17;20.42;;;;;;;7.55;84.25;94938.47;5016638;28;20197;-69
2023/10/19 06:15:56;;;;;;;23.75;19.42;;;;;;;7.60;84.37;94935.53;5014933;28;20199;-69
2023/10/19 06:18:29;;;;;;;19.67;17.52;;;;;;;7.62;84.92;94939.50;5015938;28;20203;-69
2023/10/19 06:20:59;;;;;;;22.80;19.45;;;;;;;7.63;84.81;94932.09;5016236;28;20207;-69
2023/10/19 06:23:32;;;;;;;23.85;20.08;;;;;;;7.63;84.71;94932.91;5016462;28;20258;-69
2023/10/19 06:26:04;;;;;;;22.08;18.92;;;;;;;7.63;84.54;94929.34;5016115;28;20183;-69
2023/10/19 06:28:38;;;;;;;21.13;18.38;;;;;;;7.65;84.68;94930.59;5015525;28;20554;-69
2023/10/19 06:31:08;;;;;;;20.08;17.40;;;;;;;7.68;84.77;94932.69;5016228;28;20591;-69
2023/10/19 06:33:41;;;;;;;21.02;18.15;;;;;;;7.65;84.52;94930.59;5016078;28;20187;-69
2023/10/19 06:36:12;;;;;;;20.80;18.05;;;;;;;7.68;84.81;94929.13;5015044;28;20203;-69
2023/10/19 06:38:42;;;;;;;19.17;17.08;;;;;;;7.70;84.80;94941.41;5015567;28;20262;-69
2023/10/19 06:41:13;;;;;;;21.38;18.77;;;;;;;7.73;84.98;94945.38;5015661;28;20201;-69
2023/10/19 06:43:41;;;;;;;19.70;17.60;;;;;;;7.74;84.77;94948.97;5015288;28;20199;-69
2023/10/19 06:46:11;;;;;;;20.23;18.10;;;;;;;7.79;85.00;94946.00;5015563;28;20187;-69
2023/10/19 06:48:38;;;;;;;21.25;18.52;;;;;;;7.86;85.04;94940.75;5016363;28;20207;-69
2023/10/19 06:51:06;;;;;;;22.38;18.77;;;;;;;7.90;85.19;94934.25;5015813;28;20187;-69
2023/10/19 06:53:33;;;;;;;21.65;19.02;;;;;;;8.00;84.63;94933.00;5030401;28;20237;-69
2023/10/19 06:56:04;;;;;;;23.23;18.65;;;;;;;8.10;84.91;94921.59;5055788;28;20198;-69
2023/10/19 06:58:31;;;;;;;22.95;19.40;;;;;;;8.17;84.72;94921.03;5054900;28;20214;-69
2023/10/19 07:01:05;;;;;;;21.35;18.73;;;;;;;8.22;84.27;94904.31;5038385;28;20202;-69
2023/10/19 07:03:33;;;;;;;22.75;19.70;;;;;;;8.29;83.98;94910.06;5054974;28;20196;-69
2023/10/19 07:06:02;;;;;;;23.60;19.10;;;;;;;8.36;84.04;94917.75;5038189;28;20240;-69
2023/10/19 07:08:30;;;;;;;26.13;20.33;;;;;;;8.41;83.81;94923.81;5055177;28;20181;-68
2023/10/19 07:10:59;;;;;;;26.75;20.73;;;;;;;8.48;83.40;94927.97;5055192;28;20186;-69
2023/10/19 07:13:29;;;;;;;23.50;20.97;;;;;;;8.51;83.19;94933.56;5055573;28;20616;-70
2023/10/19 07:15:59;;;;;;;26.40;21.70;;;;;;;8.55;83.22;94926.25;5037517;28;20601;-69
2023/10/19 07:18:26;;;;;;;23.73;20.40;;;;;;;8.59;82.67;94926.38;5037251;28;20244;-69
2023/10/19 07:21:02;;;;;;;22.73;19.70;;;;;;;8.62;82.16;94933.94;5038402;28;20212;-69
2023/10/19 07:23:29;;;;;;;21.73;19.27;;;;;;;8.70;82.12;94923.94;5021000;28;20723;-69
2023/10/19 07:26:00;;;;;;;23.00;19.55;;;;;;;8.73;81.76;94923.28;5038329;28;20375;-69
2023/10/19 07:28:28;;;;;;;20.77;18.58;;;;;;;8.76;81.69;94925.34;5055820;28;20206;-69
2023/10/19 07:30:57;;;;;;;20.55;18.45;;;;;;;8.81;81.49;94931.38;5042480;28;20208;-69
2023/10/19 07:33:26;;;;;;;19.65;17.63;;;;;;;8.87;81.26;94935.53;5059899;28;20208;-69
2023/10/19 07:35:55;;;;;;;19.70;17.70;;;;;;;8.90;80.76;94939.53;5059045;28;20281;-69
2023/10/19 07:38:22;;;;;;;20.13;17.30;;;;;;;8.97;80.64;94933.44;5042136;28;20221;-69
2023/10/19 07:40:52;;;;;;;19.48;17.40;;;;;;;9.03;80.49;94932.84;5058630;28;20612;-70
2023/10/19 07:43:21;;;;;;;20.17;16.70;;;;;;;9.08;80.18;94943.63;5041375;28;20229;-69
2023/10/19 07:45:49;;;;;;;19.92;17.42;;;;;;;9.11;80.06;94940.19;5041280;28;20212;-69
2023/10/19 07:48:16;;;;;;;18.80;16.85;;;;;;;9.20;79.97;94940.06;5058830;28;20201;-69
2023/10/19 07:50:44;;;;;;;20.67;18.42;;;;;;;9.33;79.59;94930.63;5058452;28;20602;-69
2023/10/19 07:53:13;;;;;;;20.67;17.23;;;;;;;9.48;78.66;94936.56;5033458;28;20242;-69
2023/10/19 07:55:40;;;;;;;18.92;16.92;;;;;;;9.55;78.41;94939.50;5018724;28;20194;-69
2023/10/19 07:58:10;;;;;;;21.10;17.42;;;;;;;9.67;78.33;94942.22;5018841;28;20203;-69
2023/10/19 08:00:37;;;;;;;18.48;16.67;;;;;;;9.82;78.23;94941.47;5019136;28;20261;-69
2023/10/19 08:03:08;;;;;;;18.48;16.60;;;;;;;9.93;77.01;94925.22;5019389;28;20201;-69
2023/10/19 08:05:38;;;;;;;18.95;16.23;;;;;;;10.08;77.26;94926.41;5018834;28;20187;-69
2023/10/19 08:08:06;;;;;;;19.70;17.77;;;;;;;10.25;77.24;94917.84;5017776;28;20199;-69
2023/10/19 08:10:34;;;;;;;19.92;17.83;;;;;;;10.45;76.52;94927.00;5018910;28;20199;-69
2023/10/19 08:13:02;;;;;;;20.23;17.87;;;;;;;10.68;75.93;94920.88;5018123;28;20569;-69
2023/10/19 08:15:30;;;;;;;19.88;17.88;;;;;;;10.77;74.27;94921.47;5018592;28;20234;-69
2023/10/19 08:18:01;;;;;;;18.67;16.80;;;;;;;10.86;74.32;94919.34;5017686;28;20314;-69
2023/10/19 08:20:31;;;;;;;18.90;16.90;;;;;;;10.97;74.29;94925.91;5018482;28;20191;-69
2023/10/19 08:23:01;;;;;;;20.00;17.90;;;;;;;11.09;72.77;94913.94;5018276;28;20209;-69
2023/10/19 08:25:28;;;;;;;20.88;18.67;;;;;;;11.21;73.24;94924.88;5017354;28;20226;-70
2023/10/19 08:28:01;;;;;;;20.60;18.65;;;;;;;11.35;72.52;94924.38;5018046;28;20199;-69
2023/10/19 08:30:28;;;;;;;21.27;18.77;;;;;;;11.44;72.83;94922.22;5017362;28;20201;-70
2023/10/19 08:32:58;;;;;;;21.80;19.40;;;;;;;11.57;72.34;94914.59;5018808;28;20278;-70
2023/10/19 08:35:25;;;;;;;24.55;20.83;;;;;;;11.79;71.29;94918.59;5018629;28;20209;-70
2023/10/19 08:37:58;;;;;;;22.20;19.83;;;;;;;11.92;70.68;94911.78;5018018;28;20219;-69
2023/10/19 08:40:28;;;;;;;22.55;20.25;;;;;;;12.16;70.17;94921.69;5016844;28;20366;-69
2023/10/19 08:42:56;;;;;;;20.20;18.05;;;;;;;12.33;69.16;94920.44;5017502;28;20298;-70
2023/10/19 08:45:23;;;;;;;16.52;14.82;;;;;;;12.46;68.92;94910.81;5017546;28;20298;-69
2023/10/19 08:47:56;;;;;;;20.02;17.20;;;;;;;12.46;68.21;94910.81;5018095;28;20205;-69
2023/10/19 08:50:24;;;;;;;20.58;18.52;;;;;;;12.40;68.14;94915.03;5018478;28;20257;-69
2023/10/19 08:52:55;;;;;;;16.08;14.52;;;;;;;12.31;67.93;94919.19;5020117;28;20210;-75
2023/10/19 08:55:25;;;;;;;22.23;19.90;;;;;;;12.47;67.92;94911.59;5040391;28;20205;-69
2023/10/19 08:57:53;;;;;;;17.45;15.65;;;;;;;12.72;66.94;94925.84;5057264;28;20224;-68
2023/10/19 09:00:24;;;;;;;13.45;12.15;;;;;;;12.86;65.46;94912.25;5040864;28;20324;-69
2023/10/19 09:02:52;;;;;;;16.35;14.38;;;;;;;13.05;65.07;94914.13;5040948;28;20281;-68
2023/10/19 09:05:22;;;;;;;14.85;13.25;;;;;;;13.21;64.44;94906.44;5040591;28;20205;-68
2023/10/19 09:07:54;;;;;;;17.05;15.25;;;;;;;13.34;64.09;94898.75;5057544;28;20188;-69
2023/10/19 09:10:24;;;;;;;17.75;15.93;;;;;;;13.47;64.18;94891.00;5057436;28;20292;-69
2023/10/19 09:13:03;;;;;;;19.42;16.15;;;;;;;13.59;62.86;94887.19;5040391;28;20499;-68
2023/10/19 09:15:32;;;;;;;17.95;16.08;;;;;;;13.61;62.70;94880.09;5057243;28;20186;-69
2023/10/19 09:18:14;;;;;;;17.08;15.43;;;;;;;13.78;62.32;94872.38;5039654;28;20245;-69
2023/10/19 09:20:52;;;;;;;18.25;16.35;;;;;;;13.84;62.19;94868.09;5039215;28;20279;-68
2023/10/19 09:23:22;;;;;;;16.33;14.63;;;;;;;13.80;62.17;94867.25;5040213;28;20197;-68
2023/10/19 09:25:54;;;;;;;16.17;14.48;;;;;;;13.83;62.49;94866.50;5056997;28;20182;-68
2023/10/19 09:28:23;;;;;;;15.98;14.25;;;;;;;13.79;61.30;94866.44;5056939;28;20293;-68
2023/10/19 09:30:50;;;;;;;14.93;12.35;;;;;;;13.72;61.88;94866.38;5039632;28;20212;-68
2023/10/19 09:33:21;;;;;;;11.75;10.52;;;;;;;13.70;61.10;94866.75;5056820;28;20186;-68
2023/10/19 09:35:50;;;;;;;10.95;9.93;;;;;;;13.69;61.44;94861.59;5039643;28;20186;-68
2023/10/19 09:38:21;;;;;;;11.35;9.70;;;;;;;13.71;62.11;94845.38;5056936;28;20229;-68
2023/10/19 09:40:51;;;;;;;10.35;9.40;;;;;;;13.73;62.25;94854.91;5039996;28;20293;-68
2023/10/19 09:43:26;;;;;;;10.88;9.77;;;;;;;13.91;61.81;94844.03;5056850;28;20207;-68
2023/10/19 09:45:54;;;;;;;9.88;8.98;;;;;;;14.03;62.24;94837.41;5039446;28;20205;-69
2023/10/19 09:48:21;;;;;;;11.25;9.20;;;;;;;14.07;61.56;94848.53;5039503;28;20237;-69
2023/10/19 09:50:54;;;;;;;11.10;9.80;;;;;;;13.95;61.19;94842.09;5055544;28;20237;-69
2023/10/19 09:53:25;;;;;;;10.07;9.07;;;;;;;13.97;61.59;94848.03;5030564;28;20239;-69
2023/10/19 09:56:00;;;;;;;10.43;9.43;;;;;;;13.98;61.16;94851.63;5016735;28;20183;-69
2023/10/19 09:58:31;;;;;;;10.57;9.48;;;;;;;13.79;61.42;94847.03;5016425;28;20229;-69
2023/10/19 10:00:59;;;;;;;11.05;9.95;;;;;;;13.63;62.17;94829.84;5016478;28;20234;-69
2023/10/19 10:03:48;;;;;;;12.32;9.77;;;;;;;13.45;61.91;94832.41;5015744;28;20202;-69
2023/10/19 10:06:20;;;;;;;11.98;9.10;;;;;;;13.29;62.10;94829.00;5015707;28;20199;-68
2023/10/19 10:08:49;;;;;;;10.10;9.10;;;;;;;13.30;62.40;94820.34;5016238;28;20520;-68
2023/10/19 10:11:20;;;;;;;9.55;8.65;;;;;;;13.53;62.79;94824.97;5016446;28;20202;-69
2023/10/19 10:13:51;;;;;;;10.90;9.80;;;;;;;13.87;61.85;94818.25;5016243;28;20334;-69
2023/10/19 10:16:20;;;;;;;9.55;8.65;;;;;;;14.06;61.21;94820.00;5015795;28;20195;-68
2023/10/19 10:18:50;;;;;;;9.68;8.60;;;;;;;14.24;60.57;94820.19;5015323;28;20213;-68
2023/10/19 10:21:20;;;;;;;9.90;9.00;;;;;;;14.37;60.62;94815.13;5016581;28;20191;-69
2023/10/19 10:23:52;;;;;;;9.73;8.68;;;;;;;14.50;59.36;94813.69;5016126;28;20194;-69
2023/10/19 10:26:25;;;;;;;10.10;9.10;;;;;;;14.57;59.48;94802.66;5016029;28;20702;-69
2023/10/19 10:29:14;;;;;;;11.82;9.52;;;;;;;14.59;59.71;94794.72;5015276;28;20642;-70
2023/10/19 10:31:47;;;;;;;10.38;9.32;;;;;;;14.68;59.64;94792.41;5015826;28;20202;-69
2023/10/19 10:34:49;;;;;;;12.85;10.30;;;;;;;14.80;59.43;94788.53;5015969;28;20195;-69
2023/10/19 10:37:17;;;;;;;10.05;9.05;;;;;;;14.80;58.92;94777.41;5016028;28;20191;-69
2023/10/19 10:39:45;;;;;;;11.32;10.10;;;;;;;14.80;58.21;94774.66;5015141;28;20212;-69
2023/10/19 10:42:14;;;;;;;10.88;8.90;;;;;;;14.86;59.26;94761.22;5015258;28;20203;-69
2023/10/19 10:44:44;;;;;;;11.05;9.85;;;;;;;14.88;59.65;94751.28;5016262;28;20198;-69
2023/10/19 10:47:12;;;;;;;10.48;8.82;;;;;;;14.97;58.75;94750.94;5016253;28;20215;-69
2023/10/19 10:49:53;;;;;;;10.10;9.10;;;;;;;14.97;58.74;94742.63;5015217;28;20202;-69
2023/10/19 10:52:31;;;;;;;10.90;9.77;;;;;;;14.98;58.63;94746.19;5015622;28;20191;-69
2023/10/19 10:55:07;;;;;;;9.75;8.75;;;;;;;15.07;58.22;94741.06;5014976;28;20317;-69
2023/10/19 10:57:36;;;;;;;9.27;8.23;;;;;;;15.14;58.86;94733.59;5015969;28;20658;-69
2023/10/19 11:00:07;;;;;;;10.05;8.93;;;;;;;15.21;58.90;94723.66;5015613;28;20203;-69
2023/10/19 11:02:36;;;;;;;9.93;8.77;;;;;;;15.25;58.17;94716.97;5015345;28;20187;-69
2023/10/19 11:05:05;;;;;;;10.63;9.18;;;;;;;15.30;59.02;94713.00;5016031;28;20202;-69
2023/10/19 11:07:31;;;;;;;10.65;9.38;;;;;;;15.34;58.61;94711.81;5015481;28;20293;-69
2023/10/19 11:10:01;;;;;;;10.52;8.77;;;;;;;15.45;58.62;94703.50;5014446;28;20201;-69
2023/10/19 11:12:30;;;;;;;9.32;8.43;;;;;;;15.56;58.30;94709.88;5015326;28;20203;-69
2023/10/19 11:15:01;;;;;;;9.15;8.35;;;;;;;15.63;57.63;94698.00;5014616;28;20214;-69
2023/10/19 11:17:31;;;;;;;8.85;7.95;;;;;;;15.72;57.25;94698.41;5015181;28;20203;-69
2023/10/19 11:20:00;;;;;;;9.15;8.35;;;;;;;15.72;57.30;94695.63;5015384;28;20191;-69
2023/10/19 11:22:27;;;;;;;9.40;8.50;;;;;;;15.73;57.61;94675.00;5014521;28;20207;-69
2023/10/19 11:24:56;;;;;;;8.35;7.55;;;;;;;15.73;57.57;94682.56;5014832;28;20294;-69
2023/10/19 11:27:26;;;;;;;8.85;7.65;;;;;;;15.75;56.96;94680.94;5014689;28;20218;-68
2023/10/19 11:30:07;;;;;;;7.95;7.25;;;;;;;15.79;57.57;94676.19;5015411;28;20183;-68
2023/10/19 11:32:39;;;;;;;7.72;6.82;;;;;;;15.81;57.51;94668.25;5015421;28;20190;-68
2023/10/19 11:35:09;;;;;;;8.60;7.70;;;;;;;15.85;57.04;94671.03;5012525;28;20238;-68
2023/10/19 11:37:52;;;;;;;8.25;7.55;;;;;;;15.90;56.96;94667.84;5014908;28;20211;-68
2023/10/19 11:40:26;;;;;;;8.02;7.20;;;;;;;15.97;57.03;94655.94;5015624;28;20239;-68
2023/10/19 11:42:56;;;;;;;8.55;7.65;;;;;;;15.99;56.70;94657.16;5015674;28;20218;-68
2023/10/19 11:45:30;;;;;;;7.72;7.03;;;;;;;16.07;56.49;94649.59;5014569;28;20207;-68
2023/10/19 11:48:01;;;;;;;8.82;8.02;;;;;;;16.11;56.93;94662.28;5015733;28;20195;-69